Terminal Aerodrome Forecast
Issued by NWS

Home | Current Version | Previous Version | Text Only | Print | Product List | Glossary On
Versions: 1 2 3 4 5 6 7 8 9 10 11 12 13 14
000
FTPA31 PHFO 252058 AAA
TAFHJR
TAF AMD
PHJR 252058Z 2521/2618 08010G17KT P6SM FEW030 SCT045
     FM260500 05005KT P6SM FEW030 FEW045=

USA.gov is the U.S. government's official web portal to all federal, state and local government web resources and services.